Idaho Falls, Idaho
Current Conditions -  °F | °C
As of 8:53 AM on Saturday 20 Dec 2014 (Local Time) from KIDA Reporting Station
Light Snow Light Snow  
Wind Chill: 29°   Ceiling: 1500
Heat Index: 35°   Visibility: 3mi
Dew Point: 32°   Wind: 8mph
Humidity: 89%   Direction: 220°SW
Pressure: 30.05"   Gusts: NA
Location:  43.49°N, 112.04°W
Report Text: KIDA 201553Z 22007KT 3SM -SN BR OVC015 02/00 A3005 RMK AO2 SNB51 SLP192 P0000 T00170000
Loading
Personal Weather Stations






























Interactive Weather Map New forecast layout! Learn more

10-Day Weather Forecast

Advertisements
Track Severe Weather on mobile